Time;durP1;ratioP1;P1;durP2;ratioP2;P2;SDS_P1;SDS_P2;PMS_P1;PMS_P2;Temp;Humidity;BMP_temperature;BMP_pressure;BME280_temperature;BME280_humidity;BME280_pressure;Samples;Min_cycle;Max_cycle;Signal;HPM_P1;HPM_P2
2023/08/24 00:02:49;;;;;;;5.20;2.72;;;;;;;23.12;61.99;99270.56;7306236;39;20272;31
2023/08/24 00:08:24;;;;;;;3.77;2.97;;;;;;;23.33;61.32;99247.84;7285556;39;20241;31
2023/08/24 00:13:59;;;;;;;4.45;2.95;;;;;;;23.35;60.64;99264.91;7264874;40;20276;31
2023/08/24 00:19:35;;;;;;;4.53;2.90;;;;;;;23.05;61.34;99274.50;7247610;40;20312;31
2023/08/24 00:25:07;;;;;;;6.70;3.10;;;;;;;22.94;61.38;99267.16;7205731;40;20254;31
2023/08/24 00:35:44;;;;;;;4.62;2.78;;;;;;;23.04;59.93;99275.59;7336058;39;20387;31
2023/08/24 00:46:20;;;;;;;4.04;3.02;;;;;;;23.05;60.50;99271.75;7295794;39;20270;31
2023/08/24 00:56:58;;;;;;;4.40;3.00;;;;;;;22.93;60.87;99277.31;7321373;39;20724;31
2023/08/24 01:02:34;;;;;;;3.83;2.97;;;;;;;22.86;61.11;99271.13;7335161;39;20247;31
2023/08/24 01:08:06;;;;;;;3.50;2.55;;;;;;;22.88;60.93;99271.72;7136049;39;20259;31
2023/08/24 01:13:43;;;;;;;4.12;3.08;;;;;;;22.88;60.56;99274.47;7335065;39;20241;31
2023/08/24 01:19:18;;;;;;;4.23;2.90;;;;;;;22.84;61.07;99279.63;7315636;39;20248;31
2023/08/24 01:24:54;;;;;;;5.53;3.03;;;;;;;22.68;61.98;99283.09;7305861;39;20351;31
2023/08/24 01:30:30;;;;;;;3.80;2.68;;;;;;;22.70;61.54;99277.37;7315046;39;20249;31
2023/08/24 01:36:05;;;;;;;4.03;2.93;;;;;;;22.74;60.98;99273.91;7324040;39;20270;31
2023/08/24 01:41:42;;;;;;;4.60;2.90;;;;;;;22.82;61.23;99261.69;7313910;40;20319;31
2023/08/24 01:47:15;;;;;;;5.70;3.20;;;;;;;22.82;61.00;99261.69;7302493;39;20334;31
2023/08/24 01:52:47;;;;;;;6.16;2.92;;;;;;;22.86;61.09;99279.38;7305496;39;20283;31
2023/08/24 01:58:22;;;;;;;5.82;3.00;;;;;;;22.88;61.27;99278.06;7273666;40;20248;31
2023/08/24 02:03:59;;;;;;;5.40;2.90;;;;;;;22.81;61.17;99273.78;7316675;39;20599;31
2023/08/24 02:09:19;;;;;;;5.85;3.30;;;;;;;22.73;62.16;99276.91;7296323;39;20340;31
2023/08/24 02:14:39;;;;;;;3.72;2.92;;;;;;;22.66;61.69;99277.00;7274328;40;20252;31
2023/08/24 02:20:14;;;;;;;4.70;3.28;;;;;;;22.63;62.65;99268.41;7295292;40;20291;31
2023/08/24 02:25:35;;;;;;;5.78;2.87;;;;;;;22.64;62.48;99256.34;7275466;39;20244;31
2023/08/24 02:30:52;;;;;;;4.70;2.90;;;;;;;22.73;61.79;99250.25;7342480;39;20275;31
2023/08/24 02:41:29;;;;;;;4.93;3.58;;;;;;;22.82;61.78;99225.94;7311993;39;21153;31
2023/08/24 02:47:04;;;;;;;5.30;3.05;;;;;;;22.86;61.02;99210.66;7343441;39;20980;31
2023/08/24 02:52:39;;;;;;;4.93;2.95;;;;;;;22.80;61.28;99209.72;7290808;39;20248;31
2023/08/24 02:58:13;;;;;;;4.95;3.20;;;;;;;22.67;62.16;99211.91;7295431;39;20245;31
2023/08/24 03:03:49;;;;;;;6.40;3.65;;;;;;;22.50;62.58;99217.31;7330679;39;20252;31
2023/08/24 03:09:06;;;;;;;12.57;4.07;;;;;;;22.57;62.07;99170.47;7303312;39;20332;31
2023/08/24 03:14:39;;;;;;;7.68;3.86;;;;;;;22.53;62.87;99133.56;7231613;40;20280;31
2023/08/24 03:25:19;;;;;;;6.20;3.62;;;;;;;22.59;62.65;99180.16;7279281;39;21381;31
2023/08/24 03:35:56;;;;;;;6.75;3.50;;;;;;;22.54;62.72;99169.06;7334946;39;21110;31
2023/08/24 03:46:36;;;;;;;6.95;3.60;;;;;;;22.64;61.73;99147.25;7336758;39;21192;31
2023/08/24 03:52:06;;;;;;;4.45;3.60;;;;;;;22.67;61.80;99159.69;7296979;39;20280;31
2023/08/24 04:02:29;;;;;;;7.03;3.50;;;;;;;22.72;61.43;99149.66;7271974;40;21018;31
2023/08/24 04:13:07;;;;;;;6.30;3.50;;;;;;;22.67;61.64;99134.94;7326425;39;20278;31
2023/08/24 04:23:31;;;;;;;6.47;3.20;;;;;;;22.68;61.31;99131.97;7344389;39;20298;31
2023/08/24 04:34:12;;;;;;;4.87;3.42;;;;;;;22.63;60.92;99128.28;7359342;39;20312;31
2023/08/24 04:44:48;;;;;;;3.80;3.10;;;;;;;22.59;60.94;99132.59;7327669;39;20264;31
2023/08/24 04:50:22;;;;;;;5.95;3.37;;;;;;;22.57;61.17;99130.09;7273938;39;21238;31
2023/08/24 04:55:57;;;;;;;8.73;3.55;;;;;;;22.57;60.93;99130.09;7287640;39;20391;31
2023/08/24 05:06:32;;;;;;;4.45;3.12;;;;;;;22.71;61.30;99139.72;7328510;39;21162;31
2023/08/24 05:16:56;;;;;;;4.37;3.50;;;;;;;22.69;61.29;99152.88;7295121;39;20280;31
2023/08/24 05:27:37;;;;;;;6.45;3.55;;;;;;;22.64;62.54;99202.19;7355140;39;20264;31
2023/08/24 05:33:10;;;;;;;5.85;3.70;;;;;;;22.72;62.71;99234.84;7315379;39;21370;31
2023/08/24 05:38:30;;;;;;;5.45;3.55;;;;;;;22.75;62.41;99248.09;7297161;39;20263;31
2023/08/24 05:44:05;;;;;;;5.07;3.30;;;;;;;22.76;62.77;99255.28;7314528;39;20244;31
2023/08/24 05:49:37;;;;;;;5.10;3.35;;;;;;;22.76;62.30;99243.44;7229456;40;20285;31
2023/08/24 06:00:14;;;;;;;4.23;2.83;;;;;;;22.93;61.97;99230.59;7234214;40;20339;31
2023/08/24 06:10:50;;;;;;;3.90;2.90;;;;;;;23.20;59.63;99204.16;7305747;39;21153;31
2023/08/24 06:16:23;;;;;;;3.57;2.70;;;;;;;23.26;60.32;99191.28;7293430;39;20257;31
2023/08/24 06:21:58;;;;;;;3.67;2.97;;;;;;;23.32;59.81;99188.41;7266647;40;20268;31
2023/08/24 06:27:18;;;;;;;4.95;2.97;;;;;;;23.39;59.36;99176.41;7234616;40;20249;31
2023/08/24 06:32:54;;;;;;;5.00;2.70;;;;;;;23.42;58.80;99164.88;7237454;40;20269;31
2023/08/24 06:38:29;;;;;;;4.32;3.20;;;;;;;23.45;59.75;99169.91;7248475;39;20243;31
2023/08/24 06:43:49;;;;;;;3.10;2.80;;;;;;;23.60;58.84;99179.25;7293655;39;20264;31
2023/08/24 06:49:23;;;;;;;6.30;2.97;;;;;;;23.68;60.06;99184.34;7296498;39;20263;31
2023/08/24 06:54:43;;;;;;;8.70;2.97;;;;;;;23.83;58.82;99180.16;7293493;39;20256;31
2023/08/24 07:00:06;;;;;;;5.25;2.90;;;;;;;23.98;58.66;99180.38;7304688;39;20250;31
2023/08/24 07:05:34;;;;;;;5.80;2.80;;;;;;;24.15;58.64;99173.75;7279649;40;20695;31
2023/08/24 07:10:54;;;;;;;3.70;2.60;;;;;;;24.38;58.18;99169.09;7293105;40;20248;31
2023/08/24 07:16:14;;;;;;;5.10;2.80;;;;;;;24.48;57.99;99174.72;7320666;39;20260;31
2023/08/24 07:21:51;;;;;;;7.90;2.90;;;;;;;24.52;57.96;99173.13;7272489;40;20249;31
2023/08/24 07:27:28;;;;;;;4.95;3.20;;;;;;;24.55;57.89;99189.97;7273584;39;20241;31
2023/08/24 07:32:46;;;;;;;5.75;3.20;;;;;;;24.66;57.64;99188.97;7274107;39;20256;31
2023/08/24 07:38:20;;;;;;;6.15;3.50;;;;;;;24.71;58.25;99207.50;7281745;39;20243;31
2023/08/24 07:43:40;;;;;;;4.55;3.70;;;;;;;24.83;58.02;99210.16;7294677;39;20551;31
2023/08/24 07:49:15;;;;;;;6.00;3.60;;;;;;;24.94;58.06;99195.41;7286253;39;20267;31
2023/08/24 07:54:48;;;;;;;5.12;3.17;;;;;;;25.06;57.01;99187.78;7265735;39;20450;31
2023/08/24 08:00:21;;;;;;;5.82;3.50;;;;;;;25.18;57.69;99193.16;7270977;40;20276;31
2023/08/24 08:11:13;;;;;;;8.70;3.60;;;;;;;25.54;57.02;99184.94;7352164;39;21607;31
2023/08/24 08:21:37;;;;;;;5.90;3.20;;;;;;;26.01;55.75;99168.44;7307196;39;21535;31
2023/08/24 08:27:10;;;;;;;5.90;3.28;;;;;;;26.24;54.09;99158.09;7272099;39;20277;31
2023/08/24 08:37:49;;;;;;;6.28;3.10;;;;;;;26.62;53.32;99118.13;7357165;39;21191;31
2023/08/24 08:43:20;;;;;;;4.95;2.90;;;;;;;26.78;52.47;99104.06;7157377;39;20247;31
2023/08/24 08:48:52;;;;;;;6.37;3.15;;;;;;;26.92;52.39;99111.84;7308155;39;20266;31
2023/08/24 08:59:30;;;;;;;4.70;2.60;;;;;;;27.37;50.56;99122.09;7300269;39;21234;31
2023/08/24 09:09:50;;;;;;;4.55;2.80;;;;;;;27.60;51.23;99091.09;7326194;39;21053;31
2023/08/24 09:15:24;;;;;;;11.95;3.40;;;;;;;27.72;50.69;99086.91;7360870;39;20263;31
2023/08/24 09:20:59;;;;;;;5.18;3.05;;;;;;;27.94;50.39;99082.97;7306094;39;20517;31
2023/08/24 09:26:31;;;;;;;5.25;2.92;;;;;;;28.11;50.25;99077.94;7294562;39;20535;31
2023/08/24 09:32:05;;;;;;;3.40;2.60;;;;;;;28.22;50.14;99068.44;7205535;40;20258;31
2023/08/24 09:37:42;;;;;;;5.68;3.10;;;;;;;28.37;49.55;99060.06;7256344;40;20497;31
2023/08/24 09:43:15;;;;;;;6.90;3.10;;;;;;;28.60;50.72;99051.06;7267387;39;20257;31
2023/08/24 09:48:48;;;;;;;5.72;3.28;;;;;;;28.66;50.13;99026.84;7283446;39;20458;31
2023/08/24 09:59:24;;;;;;;5.67;3.10;;;;;;;28.86;50.19;99012.88;7321687;39;21376;31
2023/08/24 10:05:01;;;;;;;5.22;3.05;;;;;;;28.87;49.91;99006.22;7232660;40;20370;31
2023/08/24 10:10:35;;;;;;;4.30;3.08;;;;;;;29.10;48.91;98994.31;7262699;39;20240;31
2023/08/24 10:16:12;;;;;;;6.70;3.00;;;;;;;29.46;48.27;98997.59;7272138;40;20271;31
2023/08/24 10:21:46;;;;;;;6.65;3.85;;;;;;;29.55;48.55;98973.59;7286600;40;20448;31
2023/08/24 10:27:19;;;;;;;6.43;3.37;;;;;;;29.85;47.02;98971.56;7293677;39;20516;31
2023/08/24 10:32:53;;;;;;;4.32;3.10;;;;;;;30.08;48.44;98959.59;7266144;40;20260;31
2023/08/24 10:38:24;;;;;;;6.30;3.15;;;;;;;30.48;46.82;98946.25;7257544;40;20315;31
2023/08/24 10:43:56;;;;;;;11.44;4.46;;;;;;;30.58;46.02;98940.50;7215417;40;20264;31
2023/08/24 10:49:28;;;;;;;8.02;3.33;;;;;;;30.74;45.97;98942.72;7214689;40;20246;31
2023/08/24 10:55:16;;;;;;;9.55;3.22;;;;;;;30.88;46.11;98940.81;7228377;40;20361;31
2023/08/24 11:00:48;;;;;;;3.60;3.15;;;;;;;30.94;44.70;98933.19;7257577;40;20327;31
2023/08/24 11:06:33;;;;;;;8.50;3.63;;;;;;;31.13;44.96;98942.31;7270482;40;20283;31
2023/08/24 11:12:10;;;;;;;5.95;3.33;;;;;;;31.35;45.71;98926.87;7229177;40;20396;31
2023/08/24 11:17:42;;;;;;;6.45;3.60;;;;;;;31.48;44.74;98915.72;7225047;40;20246;31
2023/08/24 11:23:14;;;;;;;7.57;3.22;;;;;;;31.63;44.27;98907.09;7219701;40;20272;31
2023/08/24 11:28:47;;;;;;;6.43;3.50;;;;;;;31.77;44.11;98909.84;7224488;40;20250;31
2023/08/24 11:34:19;;;;;;;4.40;3.17;;;;;;;31.75;43.02;98901.81;7228737;40;20272;31
2023/08/24 11:39:39;;;;;;;5.35;3.20;;;;;;;31.61;44.18;98892.62;7233721;40;20270;31
2023/08/24 11:45:15;;;;;;;4.10;3.25;;;;;;;31.33;44.76;98873.44;7234959;40;20257;31
2023/08/24 11:50:48;;;;;;;9.43;3.17;;;;;;;31.30;45.38;98852.56;7211761;40;20260;31
2023/08/24 11:56:23;;;;;;;6.20;3.28;;;;;;;31.35;45.56;98854.44;7234978;40;20327;31
2023/08/24 12:01:56;;;;;;;3.66;2.92;;;;;;;31.52;45.71;98849.03;7245892;40;20260;31
2023/08/24 12:07:28;;;;;;;5.53;3.20;;;;;;;31.74;44.35;98849.97;7253059;40;20248;31
2023/08/24 12:13:03;;;;;;;6.03;2.90;;;;;;;31.70;44.77;98851.72;7314707;39;20279;31
2023/08/24 12:18:36;;;;;;;7.28;3.10;;;;;;;31.74;45.35;98819.28;7285069;39;20405;31
2023/08/24 12:24:11;;;;;;;7.97;2.95;;;;;;;31.95;43.85;98791.75;7295822;39;20260;31
2023/08/24 12:29:28;;;;;;;5.77;3.23;;;;;;;31.94;45.45;98781.75;7281675;39;20384;31
2023/08/24 12:34:58;;;;;;;5.00;2.80;;;;;;;32.15;43.65;98788.50;7259020;40;20425;31
2023/08/24 12:40:18;;;;;;;4.35;3.22;;;;;;;32.19;43.14;98791.47;7249818;40;20261;31
2023/08/24 12:45:53;;;;;;;7.53;3.25;;;;;;;32.66;42.61;98781.56;7257779;40;20589;31
2023/08/24 12:56:33;;;;;;;4.85;2.90;;;;;;;32.31;43.39;98772.16;7306749;39;20279;31
2023/08/24 13:02:05;;;;;;;6.00;3.00;;;;;;;32.59;43.68;98795.16;7400136;39;20334;31
2023/08/24 13:07:25;;;;;;;7.75;3.58;;;;;;;32.83;43.43;98790.03;7281595;39;20442;31
2023/08/24 13:12:58;;;;;;;6.92;3.26;;;;;;;32.50;44.66;98785.91;7279711;39;20273;31
2023/08/24 13:23:23;;;;;;;5.60;3.27;;;;;;;32.32;44.15;98762.66;7342003;39;20428;31
2023/08/24 13:33:58;;;;;;;5.35;3.22;;;;;;;31.95;45.96;98751.87;7358414;39;21156;31
2023/08/24 13:44:19;;;;;;;8.93;3.20;;;;;;;31.54;47.70;98816.12;7339474;39;20275;31
2023/08/24 13:49:52;;;;;;;5.80;3.95;;;;;;;31.29;48.63;98912.22;7375773;39;20339;31
2023/08/24 13:55:10;;;;;;;7.64;3.78;;;;;;;31.01;49.23;99017.19;7336962;39;20515;31
2023/08/24 14:00:30;;;;;;;14.68;4.45;;;;;;;30.62;52.40;99089.06;7337034;39;20310;31
2023/08/24 14:06:03;;;;;;;10.00;4.85;;;;;;;29.67;58.25;99125.16;7357523;39;20248;31
2023/08/24 14:11:20;;;;;;;7.15;4.35;;;;;;;29.03;61.25;99054.09;7342907;39;20547;31
2023/08/24 14:16:40;;;;;;;8.43;4.97;;;;;;;28.63;64.17;98928.41;7337230;39;21666;31
2023/08/24 14:22:13;;;;;;;5.85;4.57;;;;;;;27.83;64.11;98696.22;7341700;39;20335;31
2023/08/24 14:27:30;;;;;;;7.72;4.60;;;;;;;27.06;66.97;98623.19;7309780;39;20275;31
2023/08/24 14:32:50;;;;;;;8.75;4.95;;;;;;;26.92;67.79;98660.91;7295811;39;20240;31
2023/08/24 14:38:26;;;;;;;5.74;4.62;;;;;;;27.30;67.47;98682.22;7276001;40;20427;31
2023/08/24 14:43:58;;;;;;;7.05;4.85;;;;;;;27.33;68.79;98703.81;7306527;39;20276;31
2023/08/24 14:49:33;;;;;;;6.10;4.30;;;;;;;27.28;67.83;98707.44;7267657;40;20280;31
2023/08/24 14:55:07;;;;;;;6.93;4.27;;;;;;;27.25;68.81;98699.69;7277210;40;20431;31
2023/08/24 15:00:42;;;;;;;7.60;4.25;;;;;;;27.38;69.08;98705.72;7243520;40;20501;31
2023/08/24 15:06:14;;;;;;;7.85;4.15;;;;;;;27.46;68.08;98707.88;7274658;40;20307;31
2023/08/24 15:11:50;;;;;;;8.17;4.40;;;;;;;27.43;68.63;98725.03;7257152;40;20291;31
2023/08/24 15:17:08;;;;;;;9.45;4.50;;;;;;;27.56;68.78;98711.41;7237869;40;20246;31
2023/08/24 15:22:28;;;;;;;10.75;5.10;;;;;;;27.70;67.75;98725.41;7259653;40;20256;31
2023/08/24 15:28:00;;;;;;;6.03;4.80;;;;;;;27.71;69.37;98755.59;7089553;39;20443;31
2023/08/24 15:33:32;;;;;;;9.90;4.40;;;;;;;27.74;69.49;98746.72;7287970;39;20375;31
2023/08/24 15:39:05;;;;;;;6.82;3.80;;;;;;;27.79;68.18;98756.94;7244485;40;20269;31
2023/08/24 15:44:38;;;;;;;6.40;4.40;;;;;;;27.78;68.29;98760.81;7281399;40;20268;31
2023/08/24 15:50:11;;;;;;;6.58;4.88;;;;;;;27.77;68.39;98742.56;7279039;40;20267;31
2023/08/24 15:55:43;;;;;;;6.26;4.16;;;;;;;27.68;68.06;98747.88;7292222;40;20350;31
2023/08/24 16:06:20;;;;;;;7.00;4.78;;;;;;;27.74;68.44;98727.31;7246056;40;21299;31
2023/08/24 16:16:41;;;;;;;7.95;5.28;;;;;;;27.54;70.87;98854.88;7285198;39;20252;31
2023/08/24 16:22:13;;;;;;;8.10;4.67;;;;;;;27.04;71.58;98849.53;7294047;40;20252;31
2023/08/24 16:27:49;;;;;;;5.40;4.67;;;;;;;26.83;70.80;98873.63;7274176;40;20241;31
2023/08/24 16:33:06;;;;;;;6.32;4.57;;;;;;;26.98;71.35;98878.34;7278970;39;21120;31
2023/08/24 16:38:41;;;;;;;6.53;4.75;;;;;;;26.80;72.36;98879.72;7359128;39;20251;31
2023/08/24 16:44:16;;;;;;;5.47;4.78;;;;;;;26.80;71.66;98915.69;7344798;39;20260;31
2023/08/24 16:49:50;;;;;;;6.28;4.50;;;;;;;26.66;70.70;98887.78;7297343;39;20505;31
2023/08/24 16:55:26;;;;;;;5.97;4.68;;;;;;;26.71;70.80;98911.84;7336691;39;20259;31
2023/08/24 17:00:58;;;;;;;9.05;6.47;;;;;;;26.72;71.33;99084.97;7231838;40;20375;31
2023/08/24 17:06:30;;;;;;;10.95;5.37;;;;;;;26.13;73.63;99024.53;7296241;39;20259;31
2023/08/24 17:17:09;;;;;;;6.93;4.95;;;;;;;24.18;82.57;98930.81;7238311;40;21290;31
2023/08/24 17:27:33;;;;;;;8.77;6.10;;;;;;;24.69;78.90;98771.38;7323713;39;20263;31
2023/08/24 17:33:07;;;;;;;10.15;6.20;;;;;;;24.87;76.88;98726.81;7363683;39;20315;31
2023/08/24 17:38:42;;;;;;;6.20;5.22;;;;;;;25.10;76.62;98759.41;7309185;39;20260;31
2023/08/24 17:44:17;;;;;;;6.35;5.75;;;;;;;25.24;76.28;98808.56;7320141;39;20261;31
2023/08/24 17:49:50;;;;;;;6.40;5.15;;;;;;;25.20;76.46;98862.62;7202982;40;22444;31
2023/08/24 17:55:25;;;;;;;6.50;4.90;;;;;;;25.02;76.77;98881.31;7139348;40;20243;31
2023/08/24 18:01:00;;;;;;;6.15;5.00;;;;;;;25.10;75.72;98886.31;7164974;40;20251;31
2023/08/24 18:06:36;;;;;;;8.73;4.83;;;;;;;25.08;76.31;98910.59;7253316;39;20313;31
2023/08/24 18:11:56;;;;;;;7.20;5.00;;;;;;;25.07;75.04;98902.56;7274838;40;20267;31
2023/08/24 18:22:30;;;;;;;7.32;5.32;;;;;;;25.10;75.09;98855.13;7268410;39;21085;31
2023/08/24 18:28:05;;;;;;;8.80;5.10;;;;;;;24.89;75.46;98719.09;7352482;39;20247;31
2023/08/24 18:33:40;;;;;;;6.93;5.00;;;;;;;24.74;77.56;98696.97;7336865;39;20454;31
2023/08/24 18:39:14;;;;;;;7.62;5.30;;;;;;;24.67;77.25;98716.50;7287486;40;20675;31
2023/08/24 18:49:35;;;;;;;8.02;5.35;;;;;;;24.81;77.78;98702.22;7246321;40;22266;31
2023/08/24 18:55:07;;;;;;;6.68;4.52;;;;;;;24.92;76.85;98655.16;7281330;39;21132;31
2023/08/24 19:00:27;;;;;;;7.05;5.40;;;;;;;24.91;77.55;98661.75;7305339;39;20256;31
2023/08/24 19:06:02;;;;;;;7.97;5.47;;;;;;;24.78;78.67;98730.34;7337566;39;20311;31
2023/08/24 19:11:35;;;;;;;6.45;5.32;;;;;;;24.55;78.80;98803.25;7280307;40;20516;31
2023/08/24 19:16:54;;;;;;;8.05;5.75;;;;;;;24.40;79.81;98803.16;7256441;40;21271;31
2023/08/24 19:22:29;;;;;;;9.95;5.80;;;;;;;24.42;80.62;98779.75;7287869;39;20299;31
2023/08/24 19:28:05;;;;;;;9.90;5.20;;;;;;;24.35;79.26;98781.09;7316076;39;20248;31
2023/08/24 19:33:40;;;;;;;5.87;5.05;;;;;;;24.44;79.03;98757.47;7290931;39;20467;31
2023/08/24 19:39:00;;;;;;;8.40;5.45;;;;;;;24.58;79.29;98736.56;7225533;40;20250;31
2023/08/24 19:44:36;;;;;;;6.30;5.40;;;;;;;24.59;78.02;98768.56;7288788;39;20436;31
2023/08/24 19:49:53;;;;;;;7.33;5.47;;;;;;;24.62;78.43;98768.00;7300753;39;20522;31
2023/08/24 20:00:32;;;;;;;9.10;5.30;;;;;;;24.62;77.71;98765.25;7334241;39;21324;31
2023/08/24 20:11:08;;;;;;;8.20;5.60;;;;;;;24.48;77.49;98707.06;7336657;39;21287;31
2023/08/24 20:21:46;;;;;;;6.10;5.50;;;;;;;23.89;81.30;98711.06;7290297;39;21282;31
2023/08/24 20:32:21;;;;;;;10.00;5.70;;;;;;;23.95;79.95;98683.31;7318406;39;21094;31
2023/08/24 20:37:57;;;;;;;7.45;5.50;;;;;;;23.91;79.26;98689.63;7396801;39;20262;31
2023/08/24 20:43:32;;;;;;;7.67;5.27;;;;;;;23.92;80.85;98714.13;7338891;39;20429;31
2023/08/24 20:49:07;;;;;;;6.83;5.33;;;;;;;23.84;80.51;98705.53;7333535;39;20278;31
2023/08/24 20:59:44;;;;;;;6.47;5.28;;;;;;;23.85;79.23;98707.19;7264170;39;21142;31
2023/08/24 21:10:20;;;;;;;6.25;5.00;;;;;;;23.84;79.52;98684.34;7304139;39;21117;31
2023/08/24 21:20:58;;;;;;;5.37;4.78;;;;;;;23.61;80.60;98662.69;7376898;39;21103;31
2023/08/24 21:26:15;;;;;;;5.82;4.72;;;;;;;23.54;79.96;98662.94;7312104;39;20269;31
2023/08/24 21:31:35;;;;;;;5.05;4.60;;;;;;;23.45;80.57;98671.94;7265601;40;20408;31
2023/08/24 21:42:10;;;;;;;5.18;4.37;;;;;;;23.37;81.50;98686.97;7311601;39;20271;31
2023/08/24 21:47:33;;;;;;;4.85;4.35;;;;;;;23.56;79.86;98682.78;7334337;39;20420;31
2023/08/24 21:53:06;;;;;;;9.63;5.10;;;;;;;23.56;80.30;98688.28;7317774;39;20606;31
2023/08/24 21:58:42;;;;;;;5.50;4.32;;;;;;;23.57;80.09;98695.41;7320042;39;20299;31
2023/08/24 22:04:17;;;;;;;6.35;4.50;;;;;;;23.60;79.49;98705.09;7328082;39;20321;31
2023/08/24 22:09:53;;;;;;;7.10;4.75;;;;;;;23.63;80.29;98715.56;7355457;39;20432;31
2023/08/24 22:15:29;;;;;;;5.05;4.55;;;;;;;23.59;79.47;98722.69;7284495;39;20445;31
2023/08/24 22:21:04;;;;;;;6.57;4.60;;;;;;;23.59;79.94;98719.94;7235347;40;20245;31
2023/08/24 22:26:40;;;;;;;7.78;4.97;;;;;;;23.51;79.84;98717.66;7203212;40;20257;31
2023/08/24 22:32:15;;;;;;;9.27;4.00;;;;;;;23.43;80.29;98720.87;7214846;40;20476;31
2023/08/24 22:37:33;;;;;;;5.32;4.40;;;;;;;23.43;79.94;98712.59;7192277;40;20364;31
2023/08/24 22:42:53;;;;;;;5.70;4.47;;;;;;;23.28;80.04;98703.13;7086446;40;20311;31
2023/08/24 22:48:27;;;;;;;6.15;4.85;;;;;;;23.15;81.32;98691.72;7258163;40;20349;31
2023/08/24 22:53:48;;;;;;;5.47;4.70;;;;;;;23.13;79.57;98710.38;7263766;40;20426;31
2023/08/24 22:59:08;;;;;;;6.85;4.35;;;;;;;23.18;79.53;98726.94;7301986;39;20256;31
2023/08/24 23:04:45;;;;;;;7.60;5.68;;;;;;;23.11;80.39;98721.66;7291101;39;20318;31
2023/08/24 23:10:18;;;;;;;5.96;4.70;;;;;;;23.02;80.93;98723.19;7300242;39;20264;31
2023/08/24 23:15:54;;;;;;;6.60;5.30;;;;;;;23.09;80.86;98731.22;7297104;39;20241;31
2023/08/24 23:21:30;;;;;;;6.55;5.00;;;;;;;23.05;80.60;98730.94;7292569;39;20446;31
2023/08/24 23:27:05;;;;;;;6.70;4.50;;;;;;;22.90;81.11;98715.09;7285690;39;20348;31
2023/08/24 23:32:40;;;;;;;8.90;5.70;;;;;;;22.77;80.85;98712.72;7225432;40;20246;31
2023/08/24 23:38:16;;;;;;;6.10;4.30;;;;;;;22.75;81.21;98717.66;7236440;40;20359;31
2023/08/24 23:43:51;;;;;;;4.50;4.10;;;;;;;22.74;80.38;98713.25;7274051;39;20244;31
2023/08/24 23:49:26;;;;;;;6.00;4.60;;;;;;;22.80;79.90;98717.75;7293033;39;20250;31
2023/08/24 23:55:02;;;;;;;9.40;4.75;;;;;;;22.74;80.96;98716.00;7266791;40;20241;31
